sensor_id;sensor_type;location;lat;lon;timestamp;temperature;humidity
24800;DHT22;12897;50.812;4.430;2023-10-31T00:02:15;11.90;99.90
24800;DHT22;12897;50.812;4.430;2023-10-31T00:04:42;12.00;99.90
24800;DHT22;12897;50.812;4.430;2023-10-31T00:07:10;12.00;99.90
24800;DHT22;12897;50.812;4.430;2023-10-31T00:09:37;11.90;99.90
24800;DHT22;12897;50.812;4.430;2023-10-31T00:12:06;12.10;99.90
24800;DHT22;12897;50.812;4.430;2023-10-31T00:14:33;12.00;99.90
24800;DHT22;12897;50.812;4.430;2023-10-31T00:17:01;12.20;99.90
24800;DHT22;12897;50.812;4.430;2023-10-31T00:19:29;12.10;99.90
24800;DHT22;12897;50.812;4.430;2023-10-31T00:21:57;12.00;99.90
24800;DHT22;12897;50.812;4.430;2023-10-31T00:24:34;12.00;99.90
24800;DHT22;12897;50.812;4.430;2023-10-31T00:27:10;12.00;99.90
24800;DHT22;12897;50.812;4.430;2023-10-31T00:29:46;11.90;99.90
24800;DHT22;12897;50.812;4.430;2023-10-31T00:32:22;11.90;99.90
24800;DHT22;12897;50.812;4.430;2023-10-31T00:34:58;12.00;99.90
24800;DHT22;12897;50.812;4.430;2023-10-31T00:37:34;12.00;99.90
24800;DHT22;12897;50.812;4.430;2023-10-31T00:40:10;12.00;99.90
24800;DHT22;12897;50.812;4.430;2023-10-31T00:42:47;12.00;99.90
24800;DHT22;12897;50.812;4.430;2023-10-31T00:45:23;12.00;99.90
24800;DHT22;12897;50.812;4.430;2023-10-31T00:47:51;12.10;99.90
24800;DHT22;12897;50.812;4.430;2023-10-31T00:50:19;12.00;99.90
24800;DHT22;12897;50.812;4.430;2023-10-31T00:52:47;11.90;99.90
24800;DHT22;12897;50.812;4.430;2023-10-31T00:55:15;11.80;99.90
24800;DHT22;12897;50.812;4.430;2023-10-31T00:57:42;11.80;99.90
24800;DHT22;12897;50.812;4.430;2023-10-31T01:00:15;11.90;99.90
24800;DHT22;12897;50.812;4.430;2023-10-31T01:02:42;11.90;99.90
24800;DHT22;12897;50.812;4.430;2023-10-31T01:05:11;11.90;99.90
24800;DHT22;12897;50.812;4.430;2023-10-31T01:07:38;11.90;99.90
24800;DHT22;12897;50.812;4.430;2023-10-31T01:10:06;11.90;99.90
24800;DHT22;12897;50.812;4.430;2023-10-31T01:12:34;11.90;99.90
24800;DHT22;12897;50.812;4.430;2023-10-31T01:15:01;11.90;99.90
24800;DHT22;12897;50.812;4.430;2023-10-31T01:17:29;12.00;99.90
24800;DHT22;12897;50.812;4.430;2023-10-31T01:19:57;12.00;99.90
24800;DHT22;12897;50.812;4.430;2023-10-31T01:22:24;12.10;99.90
24800;DHT22;12897;50.812;4.430;2023-10-31T01:24:52;12.10;99.90
24800;DHT22;12897;50.812;4.430;2023-10-31T01:27:19;12.20;99.90
24800;DHT22;12897;50.812;4.430;2023-10-31T01:29:47;12.10;99.90
24800;DHT22;12897;50.812;4.430;2023-10-31T01:32:17;12.00;99.90
24800;DHT22;12897;50.812;4.430;2023-10-31T01:34:57;12.00;99.90
24800;DHT22;12897;50.812;4.430;2023-10-31T01:37:31;12.00;99.90
24800;DHT22;12897;50.812;4.430;2023-10-31T01:40:11;12.00;99.90
24800;DHT22;12897;50.812;4.430;2023-10-31T01:42:44;11.90;99.90
24800;DHT22;12897;50.812;4.430;2023-10-31T01:45:20;11.90;99.90
24800;DHT22;12897;50.812;4.430;2023-10-31T01:47:56;11.90;99.90
24800;DHT22;12897;50.812;4.430;2023-10-31T01:50:33;11.90;99.90
24800;DHT22;12897;50.812;4.430;2023-10-31T01:53:06;11.70;99.90
24800;DHT22;12897;50.812;4.430;2023-10-31T01:55:34;11.70;99.90
24800;DHT22;12897;50.812;4.430;2023-10-31T01:58:02;11.60;99.90
24800;DHT22;12897;50.812;4.430;2023-10-31T02:00:30;11.60;99.90
24800;DHT22;12897;50.812;4.430;2023-10-31T02:02:58;11.50;99.90
24800;DHT22;12897;50.812;4.430;2023-10-31T02:05:25;11.50;99.90
24800;DHT22;12897;50.812;4.430;2023-10-31T02:07:55;11.50;99.90
24800;DHT22;12897;50.812;4.430;2023-10-31T02:10:22;11.50;99.90
24800;DHT22;12897;50.812;4.430;2023-10-31T02:12:50;11.60;99.90
24800;DHT22;12897;50.812;4.430;2023-10-31T02:15:17;11.60;99.90
24800;DHT22;12897;50.812;4.430;2023-10-31T02:17:47;11.60;99.90
24800;DHT22;12897;50.812;4.430;2023-10-31T02:20:14;11.60;99.90
24800;DHT22;12897;50.812;4.430;2023-10-31T02:22:41;11.60;99.90
24800;DHT22;12897;50.812;4.430;2023-10-31T02:25:18;11.60;99.90
24800;DHT22;12897;50.812;4.430;2023-10-31T02:27:48;11.50;99.90
24800;DHT22;12897;50.812;4.430;2023-10-31T02:30:15;11.60;99.90
24800;DHT22;12897;50.812;4.430;2023-10-31T02:32:43;11.50;99.90
24800;DHT22;12897;50.812;4.430;2023-10-31T02:35:11;11.50;99.90
24800;DHT22;12897;50.812;4.430;2023-10-31T02:37:39;11.50;99.90
24800;DHT22;12897;50.812;4.430;2023-10-31T02:40:07;11.50;99.90
24800;DHT22;12897;50.812;4.430;2023-10-31T02:42:41;11.40;99.90
24800;DHT22;12897;50.812;4.430;2023-10-31T02:45:17;11.40;99.90
24800;DHT22;12897;50.812;4.430;2023-10-31T02:47:48;11.40;99.90
24800;DHT22;12897;50.812;4.430;2023-10-31T02:50:15;11.50;99.90
24800;DHT22;12897;50.812;4.430;2023-10-31T02:52:43;11.40;99.90
24800;DHT22;12897;50.812;4.430;2023-10-31T02:55:10;11.30;99.90
24800;DHT22;12897;50.812;4.430;2023-10-31T02:57:38;11.20;99.90
24800;DHT22;12897;50.812;4.430;2023-10-31T03:00:06;11.20;99.90
24800;DHT22;12897;50.812;4.430;2023-10-31T03:02:34;11.20;99.90
24800;DHT22;12897;50.812;4.430;2023-10-31T03:05:01;11.30;99.90
24800;DHT22;12897;50.812;4.430;2023-10-31T03:07:30;11.40;99.90
24800;DHT22;12897;50.812;4.430;2023-10-31T03:09:57;11.50;99.90
24800;DHT22;12897;50.812;4.430;2023-10-31T03:12:25;11.40;99.90
24800;DHT22;12897;50.812;4.430;2023-10-31T03:14:52;11.40;99.90
24800;DHT22;12897;50.812;4.430;2023-10-31T03:17:20;11.30;99.90
24800;DHT22;12897;50.812;4.430;2023-10-31T03:19:50;11.30;99.90
24800;DHT22;12897;50.812;4.430;2023-10-31T03:22:17;11.30;99.90
24800;DHT22;12897;50.812;4.430;2023-10-31T03:24:45;11.40;99.90
24800;DHT22;12897;50.812;4.430;2023-10-31T03:27:13;11.40;99.90
24800;DHT22;12897;50.812;4.430;2023-10-31T03:29:40;11.40;99.90
24800;DHT22;12897;50.812;4.430;2023-10-31T03:32:10;11.40;99.90
24800;DHT22;12897;50.812;4.430;2023-10-31T03:34:38;11.30;99.90
24800;DHT22;12897;50.812;4.430;2023-10-31T03:37:05;11.30;99.90
24800;DHT22;12897;50.812;4.430;2023-10-31T03:39:33;11.30;99.90
24800;DHT22;12897;50.812;4.430;2023-10-31T03:42:00;11.20;99.90
24800;DHT22;12897;50.812;4.430;2023-10-31T03:44:28;11.20;99.90
24800;DHT22;12897;50.812;4.430;2023-10-31T03:46:57;11.10;99.90
24800;DHT22;12897;50.812;4.430;2023-10-31T03:49:25;11.10;99.90
24800;DHT22;12897;50.812;4.430;2023-10-31T03:51:53;11.10;99.90
24800;DHT22;12897;50.812;4.430;2023-10-31T03:54:20;11.10;99.90
24800;DHT22;12897;50.812;4.430;2023-10-31T03:56:48;11.00;99.90
24800;DHT22;12897;50.812;4.430;2023-10-31T03:59:16;11.10;99.90
24800;DHT22;12897;50.812;4.430;2023-10-31T04:01:43;11.20;99.90
24800;DHT22;12897;50.812;4.430;2023-10-31T04:04:13;11.20;99.90
24800;DHT22;12897;50.812;4.430;2023-10-31T04:06:43;11.10;99.90
24800;DHT22;12897;50.812;4.430;2023-10-31T04:09:10;11.20;99.90
24800;DHT22;12897;50.812;4.430;2023-10-31T04:11:38;11.20;99.90
24800;DHT22;12897;50.812;4.430;2023-10-31T04:14:06;11.20;99.90
24800;DHT22;12897;50.812;4.430;2023-10-31T04:16:39;11.20;99.90
24800;DHT22;12897;50.812;4.430;2023-10-31T04:19:09;11.30;99.90
24800;DHT22;12897;50.812;4.430;2023-10-31T04:21:45;11.30;99.90
24800;DHT22;12897;50.812;4.430;2023-10-31T04:24:18;11.30;99.90
24800;DHT22;12897;50.812;4.430;2023-10-31T04:26:58;11.30;99.90
24800;DHT22;12897;50.812;4.430;2023-10-31T04:29:34;11.30;99.90
24800;DHT22;12897;50.812;4.430;2023-10-31T04:32:11;11.20;99.90
24800;DHT22;12897;50.812;4.430;2023-10-31T04:34:47;11.20;99.90
24800;DHT22;12897;50.812;4.430;2023-10-31T04:37:16;11.10;99.90
24800;DHT22;12897;50.812;4.430;2023-10-31T04:39:43;11.10;99.90
24800;DHT22;12897;50.812;4.430;2023-10-31T04:42:11;11.10;99.90
24800;DHT22;12897;50.812;4.430;2023-10-31T04:44:39;11.00;99.90
24800;DHT22;12897;50.812;4.430;2023-10-31T04:47:06;11.00;99.90
24800;DHT22;12897;50.812;4.430;2023-10-31T04:49:43;11.20;99.90
24800;DHT22;12897;50.812;4.430;2023-10-31T04:52:12;11.20;99.90
24800;DHT22;12897;50.812;4.430;2023-10-31T04:54:40;11.20;99.90
24800;DHT22;12897;50.812;4.430;2023-10-31T04:57:15;11.30;99.90
24800;DHT22;12897;50.812;4.430;2023-10-31T04:59:44;11.20;99.90
24800;DHT22;12897;50.812;4.430;2023-10-31T05:02:11;11.20;99.90
24800;DHT22;12897;50.812;4.430;2023-10-31T05:04:39;11.30;99.90
24800;DHT22;12897;50.812;4.430;2023-10-31T05:07:08;11.30;99.90
24800;DHT22;12897;50.812;4.430;2023-10-31T05:09:36;11.40;99.90
24800;DHT22;12897;50.812;4.430;2023-10-31T05:12:04;11.30;99.90
24800;DHT22;12897;50.812;4.430;2023-10-31T05:14:32;11.30;99.90
24800;DHT22;12897;50.812;4.430;2023-10-31T05:16:59;11.30;99.90
24800;DHT22;12897;50.812;4.430;2023-10-31T05:19:27;11.30;99.90
24800;DHT22;12897;50.812;4.430;2023-10-31T05:21:54;11.40;99.90
24800;DHT22;12897;50.812;4.430;2023-10-31T05:24:23;11.40;99.90
24800;DHT22;12897;50.812;4.430;2023-10-31T05:26:54;11.40;99.90
24800;DHT22;12897;50.812;4.430;2023-10-31T05:29:34;11.40;99.90
24800;DHT22;12897;50.812;4.430;2023-10-31T05:32:04;11.50;99.90
24800;DHT22;12897;50.812;4.430;2023-10-31T05:34:44;11.60;99.90
24800;DHT22;12897;50.812;4.430;2023-10-31T05:37:19;11.60;99.90
24800;DHT22;12897;50.812;4.430;2023-10-31T05:39:58;11.70;99.90
24800;DHT22;12897;50.812;4.430;2023-10-31T05:42:32;11.70;99.90
24800;DHT22;12897;50.812;4.430;2023-10-31T05:45:10;11.60;99.90
24800;DHT22;12897;50.812;4.430;2023-10-31T05:47:38;11.50;99.90
24800;DHT22;12897;50.812;4.430;2023-10-31T05:50:07;11.50;99.90
24800;DHT22;12897;50.812;4.430;2023-10-31T05:52:35;11.60;99.90
24800;DHT22;12897;50.812;4.430;2023-10-31T05:55:03;11.50;99.90
24800;DHT22;12897;50.812;4.430;2023-10-31T05:57:31;11.60;99.90
24800;DHT22;12897;50.812;4.430;2023-10-31T05:59:58;11.70;99.90
24800;DHT22;12897;50.812;4.430;2023-10-31T06:02:28;11.60;99.90
24800;DHT22;12897;50.812;4.430;2023-10-31T06:04:56;11.60;99.90
24800;DHT22;12897;50.812;4.430;2023-10-31T06:07:24;11.60;99.90
24800;DHT22;12897;50.812;4.430;2023-10-31T06:09:51;11.70;99.90
24800;DHT22;12897;50.812;4.430;2023-10-31T06:12:19;11.80;99.90
24800;DHT22;12897;50.812;4.430;2023-10-31T06:14:46;11.80;99.90
24800;DHT22;12897;50.812;4.430;2023-10-31T06:17:14;11.80;99.90
24800;DHT22;12897;50.812;4.430;2023-10-31T06:19:42;11.90;99.90
24800;DHT22;12897;50.812;4.430;2023-10-31T06:22:12;11.90;99.90
24800;DHT22;12897;50.812;4.430;2023-10-31T06:24:39;11.90;99.90
24800;DHT22;12897;50.812;4.430;2023-10-31T06:27:07;12.00;99.90
24800;DHT22;12897;50.812;4.430;2023-10-31T06:29:41;11.90;99.90
24800;DHT22;12897;50.812;4.430;2023-10-31T06:32:06;12.00;99.90
24800;DHT22;12897;50.812;4.430;2023-10-31T06:34:34;11.80;99.90
24800;DHT22;12897;50.812;4.430;2023-10-31T06:37:01;11.60;99.90
24800;DHT22;12897;50.812;4.430;2023-10-31T06:39:31;11.60;99.90
24800;DHT22;12897;50.812;4.430;2023-10-31T06:41:59;11.70;99.90
24800;DHT22;12897;50.812;4.430;2023-10-31T06:44:26;11.70;99.90
24800;DHT22;12897;50.812;4.430;2023-10-31T06:46:54;11.70;99.90
24800;DHT22;12897;50.812;4.430;2023-10-31T06:49:21;11.80;99.90
24800;DHT22;12897;50.812;4.430;2023-10-31T06:51:50;11.70;99.90
24800;DHT22;12897;50.812;4.430;2023-10-31T06:54:18;11.60;99.90
24800;DHT22;12897;50.812;4.430;2023-10-31T06:56:46;11.70;99.90
24800;DHT22;12897;50.812;4.430;2023-10-31T06:59:13;11.80;99.90
24800;DHT22;12897;50.812;4.430;2023-10-31T07:01:41;11.90;99.90
24800;DHT22;12897;50.812;4.430;2023-10-31T07:04:10;11.90;99.90
24800;DHT22;12897;50.812;4.430;2023-10-31T07:06:38;12.00;99.90
24800;DHT22;12897;50.812;4.430;2023-10-31T07:09:07;12.00;99.90
24800;DHT22;12897;50.812;4.430;2023-10-31T07:11:36;12.00;99.90
24800;DHT22;12897;50.812;4.430;2023-10-31T07:14:03;12.00;99.90
24800;DHT22;12897;50.812;4.430;2023-10-31T07:16:32;11.90;99.90
24800;DHT22;12897;50.812;4.430;2023-10-31T07:19:00;11.80;99.90
24800;DHT22;12897;50.812;4.430;2023-10-31T07:21:28;11.80;99.90
24800;DHT22;12897;50.812;4.430;2023-10-31T07:23:55;11.70;99.90
24800;DHT22;12897;50.812;4.430;2023-10-31T07:26:28;11.60;99.90
24800;DHT22;12897;50.812;4.430;2023-10-31T07:28:55;11.60;99.90
24800;DHT22;12897;50.812;4.430;2023-10-31T07:31:24;11.70;99.90
24800;DHT22;12897;50.812;4.430;2023-10-31T07:33:52;11.90;99.90
24800;DHT22;12897;50.812;4.430;2023-10-31T07:36:21;12.00;99.90
24800;DHT22;12897;50.812;4.430;2023-10-31T07:38:49;12.00;99.90
24800;DHT22;12897;50.812;4.430;2023-10-31T07:41:19;12.10;99.90
24800;DHT22;12897;50.812;4.430;2023-10-31T07:43:47;12.00;99.90
24800;DHT22;12897;50.812;4.430;2023-10-31T07:46:15;12.00;99.90
24800;DHT22;12897;50.812;4.430;2023-10-31T07:48:42;12.10;99.90
24800;DHT22;12897;50.812;4.430;2023-10-31T07:51:12;12.30;99.90
24800;DHT22;12897;50.812;4.430;2023-10-31T07:53:41;12.20;99.90
24800;DHT22;12897;50.812;4.430;2023-10-31T07:56:18;12.40;99.90
24800;DHT22;12897;50.812;4.430;2023-10-31T07:58:49;12.40;99.90
24800;DHT22;12897;50.812;4.430;2023-10-31T08:01:19;12.40;99.90
24800;DHT22;12897;50.812;4.430;2023-10-31T08:03:47;12.40;99.90
24800;DHT22;12897;50.812;4.430;2023-10-31T08:06:15;12.40;99.90
24800;DHT22;12897;50.812;4.430;2023-10-31T08:08:43;12.30;99.90
24800;DHT22;12897;50.812;4.430;2023-10-31T08:11:13;12.30;99.90
24800;DHT22;12897;50.812;4.430;2023-10-31T08:13:41;12.30;99.90
24800;DHT22;12897;50.812;4.430;2023-10-31T08:16:09;12.40;99.90
24800;DHT22;12897;50.812;4.430;2023-10-31T08:18:37;12.30;99.90
24800;DHT22;12897;50.812;4.430;2023-10-31T08:21:04;12.30;99.90
24800;DHT22;12897;50.812;4.430;2023-10-31T08:23:37;12.10;99.90
24800;DHT22;12897;50.812;4.430;2023-10-31T08:26:04;12.00;99.90
24800;DHT22;12897;50.812;4.430;2023-10-31T08:28:32;12.00;99.90
24800;DHT22;12897;50.812;4.430;2023-10-31T08:31:00;12.00;99.90
24800;DHT22;12897;50.812;4.430;2023-10-31T08:33:29;12.20;99.90
24800;DHT22;12897;50.812;4.430;2023-10-31T08:35:59;12.30;99.90
24800;DHT22;12897;50.812;4.430;2023-10-31T08:38:29;12.30;99.90
24800;DHT22;12897;50.812;4.430;2023-10-31T08:40:58;12.10;99.90
24800;DHT22;12897;50.812;4.430;2023-10-31T08:43:26;12.20;99.90
24800;DHT22;12897;50.812;4.430;2023-10-31T08:45:54;12.30;99.90
24800;DHT22;12897;50.812;4.430;2023-10-31T08:48:21;12.30;99.90
24800;DHT22;12897;50.812;4.430;2023-10-31T08:50:49;12.20;99.90
24800;DHT22;12897;50.812;4.430;2023-10-31T08:53:20;12.40;99.90
24800;DHT22;12897;50.812;4.430;2023-10-31T08:55:50;12.60;99.90
24800;DHT22;12897;50.812;4.430;2023-10-31T08:58:17;12.60;99.90
24800;DHT22;12897;50.812;4.430;2023-10-31T09:00:53;12.70;99.90
24800;DHT22;12897;50.812;4.430;2023-10-31T09:03:19;12.60;99.90
24800;DHT22;12897;50.812;4.430;2023-10-31T09:05:46;12.70;99.90
24800;DHT22;12897;50.812;4.430;2023-10-31T09:08:13;13.00;99.90
24800;DHT22;12897;50.812;4.430;2023-10-31T09:10:42;13.10;99.90
24800;DHT22;12897;50.812;4.430;2023-10-31T09:13:13;13.30;99.90
24800;DHT22;12897;50.812;4.430;2023-10-31T09:15:42;13.70;99.90
24800;DHT22;12897;50.812;4.430;2023-10-31T09:18:12;13.80;99.90
24800;DHT22;12897;50.812;4.430;2023-10-31T09:20:39;13.90;99.90
24800;DHT22;12897;50.812;4.430;2023-10-31T09:23:07;13.90;99.90
24800;DHT22;12897;50.812;4.430;2023-10-31T09:25:35;14.10;99.90
24800;DHT22;12897;50.812;4.430;2023-10-31T09:28:05;14.10;99.90
24800;DHT22;12897;50.812;4.430;2023-10-31T09:30:33;14.10;99.90
24800;DHT22;12897;50.812;4.430;2023-10-31T09:33:01;14.10;99.90
24800;DHT22;12897;50.812;4.430;2023-10-31T09:35:28;13.80;99.90
24800;DHT22;12897;50.812;4.430;2023-10-31T09:38:00;13.80;99.90
24800;DHT22;12897;50.812;4.430;2023-10-31T09:40:27;13.60;99.90
24800;DHT22;12897;50.812;4.430;2023-10-31T09:42:55;13.70;99.90
24800;DHT22;12897;50.812;4.430;2023-10-31T09:45:26;13.60;99.90
24800;DHT22;12897;50.812;4.430;2023-10-31T09:47:53;13.70;99.90
24800;DHT22;12897;50.812;4.430;2023-10-31T09:50:21;13.90;99.90
24800;DHT22;12897;50.812;4.430;2023-10-31T09:52:50;13.90;99.90
24800;DHT22;12897;50.812;4.430;2023-10-31T09:55:23;13.60;99.90
24800;DHT22;12897;50.812;4.430;2023-10-31T09:57:59;13.40;99.90
24800;DHT22;12897;50.812;4.430;2023-10-31T10:00:35;13.50;99.90
24800;DHT22;12897;50.812;4.430;2023-10-31T10:03:11;13.40;99.90
24800;DHT22;12897;50.812;4.430;2023-10-31T10:05:48;13.50;99.90
24800;DHT22;12897;50.812;4.430;2023-10-31T10:08:16;13.50;99.90
24800;DHT22;12897;50.812;4.430;2023-10-31T10:10:45;13.50;99.90
24800;DHT22;12897;50.812;4.430;2023-10-31T10:13:13;13.40;99.90
24800;DHT22;12897;50.812;4.430;2023-10-31T10:15:49;13.40;99.90
24800;DHT22;12897;50.812;4.430;2023-10-31T10:18:30;13.30;99.90
24800;DHT22;12897;50.812;4.430;2023-10-31T10:21:02;13.30;99.90
24800;DHT22;12897;50.812;4.430;2023-10-31T10:23:31;13.40;99.90
24800;DHT22;12897;50.812;4.430;2023-10-31T10:26:01;13.50;99.90
24800;DHT22;12897;50.812;4.430;2023-10-31T10:28:36;13.50;99.90
24800;DHT22;12897;50.812;4.430;2023-10-31T10:31:04;13.60;99.90
24800;DHT22;12897;50.812;4.430;2023-10-31T10:33:34;13.60;99.90
24800;DHT22;12897;50.812;4.430;2023-10-31T10:36:06;13.60;99.90
24800;DHT22;12897;50.812;4.430;2023-10-31T10:38:34;13.60;99.90
24800;DHT22;12897;50.812;4.430;2023-10-31T10:41:06;13.60;99.90
24800;DHT22;12897;50.812;4.430;2023-10-31T10:43:37;13.40;99.90
24800;DHT22;12897;50.812;4.430;2023-10-31T10:46:06;13.60;99.90
24800;DHT22;12897;50.812;4.430;2023-10-31T10:48:36;13.60;99.90
24800;DHT22;12897;50.812;4.430;2023-10-31T10:51:18;13.70;99.90
24800;DHT22;12897;50.812;4.430;2023-10-31T10:53:53;13.80;99.90
24800;DHT22;12897;50.812;4.430;2023-10-31T10:56:32;13.80;99.90
24800;DHT22;12897;50.812;4.430;2023-10-31T10:59:14;13.50;99.90
24800;DHT22;12897;50.812;4.430;2023-10-31T11:01:43;13.40;99.90
24800;DHT22;12897;50.812;4.430;2023-10-31T11:06:45;13.30;99.90
24800;DHT22;12897;50.812;4.430;2023-10-31T11:09:18;13.40;99.90
24800;DHT22;12897;50.812;4.430;2023-10-31T11:11:50;13.50;99.90
24800;DHT22;12897;50.812;4.430;2023-10-31T11:14:19;13.50;99.90
24800;DHT22;12897;50.812;4.430;2023-10-31T11:16:55;13.60;99.90
24800;DHT22;12897;50.812;4.430;2023-10-31T11:19:24;13.50;99.90
24800;DHT22;12897;50.812;4.430;2023-10-31T11:21:59;13.30;99.90
24800;DHT22;12897;50.812;4.430;2023-10-31T11:24:36;13.20;99.90
24800;DHT22;12897;50.812;4.430;2023-10-31T11:27:05;13.20;99.90
24800;DHT22;12897;50.812;4.430;2023-10-31T11:29:32;13.30;99.90
24800;DHT22;12897;50.812;4.430;2023-10-31T11:32:00;13.40;99.90
24800;DHT22;12897;50.812;4.430;2023-10-31T11:34:33;13.30;99.90
24800;DHT22;12897;50.812;4.430;2023-10-31T11:39:44;13.40;99.90
24800;DHT22;12897;50.812;4.430;2023-10-31T11:42:18;13.20;99.90
24800;DHT22;12897;50.812;4.430;2023-10-31T11:44:56;12.90;99.90
24800;DHT22;12897;50.812;4.430;2023-10-31T11:47:24;12.90;99.90
24800;DHT22;12897;50.812;4.430;2023-10-31T11:49:52;12.80;99.90
24800;DHT22;12897;50.812;4.430;2023-10-31T11:52:21;12.90;99.90
24800;DHT22;12897;50.812;4.430;2023-10-31T11:54:48;13.00;99.90
24800;DHT22;12897;50.812;4.430;2023-10-31T11:57:29;13.20;99.90
24800;DHT22;12897;50.812;4.430;2023-10-31T11:59:57;13.10;99.90
24800;DHT22;12897;50.812;4.430;2023-10-31T12:02:26;13.20;99.90
24800;DHT22;12897;50.812;4.430;2023-10-31T12:05:10;13.30;99.90
24800;DHT22;12897;50.812;4.430;2023-10-31T12:07:46;13.20;99.90
24800;DHT22;12897;50.812;4.430;2023-10-31T12:10:21;13.10;99.90
24800;DHT22;12897;50.812;4.430;2023-10-31T12:12:44;12.90;99.90
24800;DHT22;12897;50.812;4.430;2023-10-31T12:15:12;13.00;99.90
24800;DHT22;12897;50.812;4.430;2023-10-31T12:17:40;12.90;99.90
24800;DHT22;12897;50.812;4.430;2023-10-31T12:20:09;13.00;99.90
24800;DHT22;12897;50.812;4.430;2023-10-31T12:22:38;12.90;99.90
24800;DHT22;12897;50.812;4.430;2023-10-31T12:25:08;12.90;99.90
24800;DHT22;12897;50.812;4.430;2023-10-31T12:27:47;12.80;99.90
24800;DHT22;12897;50.812;4.430;2023-10-31T12:30:19;12.70;99.90
24800;DHT22;12897;50.812;4.430;2023-10-31T12:32:55;12.80;99.90
24800;DHT22;12897;50.812;4.430;2023-10-31T12:35:25;12.80;99.90
24800;DHT22;12897;50.812;4.430;2023-10-31T12:37:53;12.90;99.90
24800;DHT22;12897;50.812;4.430;2023-10-31T12:40:22;12.90;99.90
24800;DHT22;12897;50.812;4.430;2023-10-31T12:42:51;13.00;99.90
24800;DHT22;12897;50.812;4.430;2023-10-31T12:45:18;13.10;99.90
24800;DHT22;12897;50.812;4.430;2023-10-31T12:48:04;13.30;99.90
24800;DHT22;12897;50.812;4.430;2023-10-31T12:50:29;13.50;99.90
24800;DHT22;12897;50.812;4.430;2023-10-31T12:52:57;13.90;99.90
24800;DHT22;12897;50.812;4.430;2023-10-31T12:55:26;13.90;99.90
24800;DHT22;12897;50.812;4.430;2023-10-31T12:57:57;13.90;99.90
24800;DHT22;12897;50.812;4.430;2023-10-31T13:00:34;14.00;99.90
24800;DHT22;12897;50.812;4.430;2023-10-31T13:03:06;14.00;99.90
24800;DHT22;12897;50.812;4.430;2023-10-31T13:05:37;13.60;99.90
24800;DHT22;12897;50.812;4.430;2023-10-31T13:08:17;13.50;99.90
24800;DHT22;12897;50.812;4.430;2023-10-31T13:10:44;13.30;99.90
24800;DHT22;12897;50.812;4.430;2023-10-31T13:13:11;13.30;99.90
24800;DHT22;12897;50.812;4.430;2023-10-31T13:15:39;13.30;99.90
24800;DHT22;12897;50.812;4.430;2023-10-31T13:18:07;13.30;99.90
24800;DHT22;12897;50.812;4.430;2023-10-31T13:20:36;13.20;99.90
24800;DHT22;12897;50.812;4.430;2023-10-31T13:23:04;13.00;99.90
24800;DHT22;12897;50.812;4.430;2023-10-31T13:25:33;13.00;99.90
24800;DHT22;12897;50.812;4.430;2023-10-31T13:28:01;12.90;99.90
24800;DHT22;12897;50.812;4.430;2023-10-31T13:30:30;12.90;99.90
24800;DHT22;12897;50.812;4.430;2023-10-31T13:32:58;13.00;99.90
24800;DHT22;12897;50.812;4.430;2023-10-31T13:35:26;13.00;99.90
24800;DHT22;12897;50.812;4.430;2023-10-31T13:37:54;13.00;99.90
24800;DHT22;12897;50.812;4.430;2023-10-31T13:40:21;12.90;99.90
24800;DHT22;12897;50.812;4.430;2023-10-31T13:42:49;12.80;99.90
24800;DHT22;12897;50.812;4.430;2023-10-31T13:45:19;12.60;99.90
24800;DHT22;12897;50.812;4.430;2023-10-31T13:47:46;12.70;99.90
24800;DHT22;12897;50.812;4.430;2023-10-31T13:50:14;12.60;99.90
24800;DHT22;12897;50.812;4.430;2023-10-31T13:52:42;12.70;99.90
24800;DHT22;12897;50.812;4.430;2023-10-31T13:55:10;12.70;99.90
24800;DHT22;12897;50.812;4.430;2023-10-31T13:57:38;12.90;99.90
24800;DHT22;12897;50.812;4.430;2023-10-31T14:00:06;13.00;99.90
24800;DHT22;12897;50.812;4.430;2023-10-31T14:02:35;13.20;99.90
24800;DHT22;12897;50.812;4.430;2023-10-31T14:05:03;13.50;99.90
24800;DHT22;12897;50.812;4.430;2023-10-31T14:07:30;13.80;99.90
24800;DHT22;12897;50.812;4.430;2023-10-31T14:09:59;13.90;99.90
24800;DHT22;12897;50.812;4.430;2023-10-31T14:12:27;14.00;99.90
24800;DHT22;12897;50.812;4.430;2023-10-31T14:14:55;14.20;99.90
24800;DHT22;12897;50.812;4.430;2023-10-31T14:17:23;14.00;99.90
24800;DHT22;12897;50.812;4.430;2023-10-31T14:19:52;13.90;99.90
24800;DHT22;12897;50.812;4.430;2023-10-31T14:22:19;13.90;99.90
24800;DHT22;12897;50.812;4.430;2023-10-31T14:24:47;13.90;99.90
24800;DHT22;12897;50.812;4.430;2023-10-31T14:27:14;14.00;99.90
24800;DHT22;12897;50.812;4.430;2023-10-31T14:29:42;13.80;99.90
24800;DHT22;12897;50.812;4.430;2023-10-31T14:32:11;13.70;99.90
24800;DHT22;12897;50.812;4.430;2023-10-31T14:34:38;13.50;99.90
24800;DHT22;12897;50.812;4.430;2023-10-31T14:37:08;13.50;99.90
24800;DHT22;12897;50.812;4.430;2023-10-31T14:39:37;13.50;99.90
24800;DHT22;12897;50.812;4.430;2023-10-31T14:42:04;13.80;99.90
24800;DHT22;12897;50.812;4.430;2023-10-31T14:44:35;13.70;99.90
24800;DHT22;12897;50.812;4.430;2023-10-31T14:47:04;13.80;99.90
24800;DHT22;12897;50.812;4.430;2023-10-31T14:49:32;13.80;99.90
24800;DHT22;12897;50.812;4.430;2023-10-31T14:51:59;13.70;99.90
24800;DHT22;12897;50.812;4.430;2023-10-31T14:54:27;13.80;99.90
24800;DHT22;12897;50.812;4.430;2023-10-31T14:56:56;13.80;99.90
24800;DHT22;12897;50.812;4.430;2023-10-31T14:59:25;13.80;99.90
24800;DHT22;12897;50.812;4.430;2023-10-31T15:01:53;13.70;99.90
24800;DHT22;12897;50.812;4.430;2023-10-31T15:04:22;13.60;99.90
24800;DHT22;12897;50.812;4.430;2023-10-31T15:06:49;13.70;99.90
24800;DHT22;12897;50.812;4.430;2023-10-31T15:09:17;13.80;99.90
24800;DHT22;12897;50.812;4.430;2023-10-31T15:11:46;13.70;99.90
24800;DHT22;12897;50.812;4.430;2023-10-31T15:14:14;13.70;99.90
24800;DHT22;12897;50.812;4.430;2023-10-31T15:16:43;13.80;99.90
24800;DHT22;12897;50.812;4.430;2023-10-31T15:19:11;13.90;99.90
24800;DHT22;12897;50.812;4.430;2023-10-31T15:21:38;14.00;99.90
24800;DHT22;12897;50.812;4.430;2023-10-31T15:24:06;13.90;99.90
24800;DHT22;12897;50.812;4.430;2023-10-31T15:26:35;13.80;99.90
24800;DHT22;12897;50.812;4.430;2023-10-31T15:29:05;13.80;99.90
24800;DHT22;12897;50.812;4.430;2023-10-31T15:31:34;13.70;99.90
24800;DHT22;12897;50.812;4.430;2023-10-31T15:34:03;13.50;99.90
24800;DHT22;12897;50.812;4.430;2023-10-31T15:36:30;13.50;99.90
24800;DHT22;12897;50.812;4.430;2023-10-31T15:38:58;13.40;99.90
24800;DHT22;12897;50.812;4.430;2023-10-31T15:41:30;13.30;99.90
24800;DHT22;12897;50.812;4.430;2023-10-31T15:43:57;13.20;99.90
24800;DHT22;12897;50.812;4.430;2023-10-31T15:46:26;13.10;99.90
24800;DHT22;12897;50.812;4.430;2023-10-31T15:48:53;13.10;99.90
24800;DHT22;12897;50.812;4.430;2023-10-31T15:51:21;13.20;99.90